Time;durP1;ratioP1;P1;durP2;ratioP2;P2;SDS_P1;SDS_P2;PMS_P1;PMS_P2;Temp;Humidity;BMP_temperature;BMP_pressure;BME280_temperature;BME280_humidity;BME280_pressure;Samples;Min_cycle;Max_cycle;Signal;HPM_P1;HPM_P2
2022/06/28 00:01:40;;;;;;;3.95;3.15;;;;;;;;;;4563655;28;20742;-71
2022/06/28 00:03:50;;;;;;;3.97;3.58;;;;;;;;;;4565712;28;20071;-70
2022/06/28 00:06:01;;;;;;;4.30;3.22;;;;;;;;;;4564157;27;20028;-71
2022/06/28 00:08:11;;;;;;;3.90;3.20;;;;;;;;;;4572691;28;20090;-70
2022/06/28 00:10:21;;;;;;;3.85;3.25;;;;;;;;;;4564683;28;20194;-71
2022/06/28 00:12:32;;;;;;;4.00;3.25;;;;;;;;;;4563229;27;20044;-71
2022/06/28 00:17:12;;;;;;;3.88;3.13;;;;;;;;;;4564988;28;20028;-71
2022/06/28 00:19:22;;;;;;;3.60;3.17;;;;;;;;;;4563553;28;20490;-70
2022/06/28 00:21:33;;;;;;;3.33;3.03;;;;;;;;;;4563664;28;20033;-71
2022/06/28 00:23:43;;;;;;;4.22;3.05;;;;;;;;;;4564849;28;20047;-71
2022/06/28 00:25:54;;;;;;;3.97;3.45;;;;;;;;;;4566430;27;20028;-71
2022/06/28 00:28:04;;;;;;;3.60;3.30;;;;;;;;;;4564793;28;20045;-71
2022/06/28 00:30:16;;;;;;;4.10;3.20;;;;;;;;;;4564288;28;20571;-71
2022/06/28 00:32:28;;;;;;;3.88;3.35;;;;;;;;;;4572469;28;20031;-72
2022/06/28 00:34:38;;;;;;;3.63;3.33;;;;;;;;;;4562716;28;20127;-72
2022/06/28 00:36:49;;;;;;;3.88;3.15;;;;;;;;;;4566152;28;20043;-71
2022/06/28 00:39:00;;;;;;;3.72;3.20;;;;;;;;;;4565510;28;20036;-72
2022/06/28 00:41:10;;;;;;;4.07;3.50;;;;;;;;;;4564318;27;22229;-71
2022/06/28 00:43:22;;;;;;;3.80;3.05;;;;;;;;;;4577511;27;20481;-71
2022/06/28 00:45:32;;;;;;;3.28;2.88;;;;;;;;;;4572054;28;20496;-71
2022/06/28 00:47:43;;;;;;;3.63;2.85;;;;;;;;;;4564967;28;20484;-71
2022/06/28 00:49:56;;;;;;;3.40;3.10;;;;;;;;;;4564352;28;20082;-71
2022/06/28 00:52:07;;;;;;;3.60;3.30;;;;;;;;;;4561945;28;20527;-72
2022/06/28 00:54:18;;;;;;;3.72;3.20;;;;;;;;;;4562568;28;20019;-71
2022/06/28 00:56:28;;;;;;;4.43;3.33;;;;;;;;;;4563722;28;20032;-71
2022/06/28 00:58:39;;;;;;;3.70;3.30;;;;;;;;;;4564944;28;20047;-71
2022/06/28 01:00:49;;;;;;;4.15;3.20;;;;;;;;;;4561472;28;20038;-71
2022/06/28 01:03:00;;;;;;;3.65;3.28;;;;;;;;;;4561881;28;20049;-71
2022/06/28 01:05:11;;;;;;;3.47;3.15;;;;;;;;;;4564041;28;20040;-71
2022/06/28 01:07:22;;;;;;;3.53;3.15;;;;;;;;;;4554178;28;20127;-72
2022/06/28 01:09:33;;;;;;;3.53;3.00;;;;;;;;;;4571856;28;20075;-72
2022/06/28 01:11:43;;;;;;;4.63;3.20;;;;;;;;;;4561780;28;20164;-71
2022/06/28 01:13:58;;;;;;;3.55;3.05;;;;;;;;;;4563216;27;20042;-72
2022/06/28 01:16:09;;;;;;;3.90;3.42;;;;;;;;;;4562001;28;20981;-72
2022/06/28 01:18:20;;;;;;;4.07;3.03;;;;;;;;;;4563209;28;20052;-71
2022/06/28 01:20:33;;;;;;;3.60;3.00;;;;;;;;;;4564481;28;20854;-72
2022/06/28 01:22:53;;;;;;;3.10;2.80;;;;;;;;;;4571159;28;20491;-72
2022/06/28 01:25:06;;;;;;;3.10;2.80;;;;;;;;;;4557464;28;20049;-71
2022/06/28 01:27:18;;;;;;;3.13;2.70;;;;;;;;;;4570790;28;20484;-72
2022/06/28 01:29:28;;;;;;;3.75;2.95;;;;;;;;;;4579131;27;20038;-72
2022/06/28 01:31:59;;;;;;;3.15;2.58;;;;;;;;;;4552471;28;20091;-72
2022/06/28 01:34:13;;;;;;;2.88;2.58;;;;;;;;;;4553984;28;20488;-71
2022/06/28 01:36:23;;;;;;;2.60;2.40;;;;;;;;;;4547878;28;20318;-71
2022/06/28 01:38:35;;;;;;;2.83;2.53;;;;;;;;;;4571555;27;20528;-73
2022/06/28 01:40:46;;;;;;;2.72;2.40;;;;;;;;;;4564186;28;20091;-72
2022/06/28 01:43:00;;;;;;;3.45;2.72;;;;;;;;;;4544469;28;20077;-72
2022/06/28 01:45:11;;;;;;;3.33;2.80;;;;;;;;;;4546887;28;20037;-72
2022/06/28 01:47:28;;;;;;;3.45;3.00;;;;;;;;;;4563979;28;20185;-72
2022/06/28 01:49:45;;;;;;;3.08;2.78;;;;;;;;;;4559877;28;20119;-71
2022/06/28 01:51:56;;;;;;;3.40;2.80;;;;;;;;;;4572525;28;20056;-72
2022/06/28 01:54:07;;;;;;;3.00;2.70;;;;;;;;;;4564068;28;20079;-72
2022/06/28 01:56:18;;;;;;;3.47;2.85;;;;;;;;;;4566269;27;20032;-71
2022/06/28 01:58:43;;;;;;;3.10;2.80;;;;;;;;;;4570273;28;20075;-72
2022/06/28 02:00:54;;;;;;;3.10;2.80;;;;;;;;;;4554098;28;20044;-72
2022/06/28 02:03:05;;;;;;;3.30;2.70;;;;;;;;;;4563324;27;20086;-72
2022/06/28 02:05:35;;;;;;;3.20;2.90;;;;;;;;;;4578633;27;20038;-73
2022/06/28 02:07:47;;;;;;;3.15;2.83;;;;;;;;;;4570363;28;20715;-72
2022/06/28 02:09:58;;;;;;;3.88;3.20;;;;;;;;;;4548085;28;20035;-72
2022/06/28 02:12:09;;;;;;;4.78;3.28;;;;;;;;;;4564832;27;20041;-72
2022/06/28 02:14:20;;;;;;;3.63;2.80;;;;;;;;;;4578014;27;20459;-71
2022/06/28 02:16:31;;;;;;;4.20;3.33;;;;;;;;;;4570216;28;20032;-72
2022/06/28 02:18:41;;;;;;;3.65;3.20;;;;;;;;;;4545328;28;20044;-72
2022/06/28 02:20:54;;;;;;;4.18;3.00;;;;;;;;;;4545610;28;20075;-71
2022/06/28 02:23:05;;;;;;;4.57;3.13;;;;;;;;;;4563091;28;20032;-72
2022/06/28 02:25:17;;;;;;;3.70;3.30;;;;;;;;;;4566330;27;20032;-72
2022/06/28 02:27:27;;;;;;;3.42;3.08;;;;;;;;;;4564275;27;20032;-72
2022/06/28 02:29:38;;;;;;;3.88;3.20;;;;;;;;;;4566315;28;20040;-71
2022/06/28 02:31:49;;;;;;;3.10;2.80;;;;;;;;;;4561312;28;20039;-72
2022/06/28 02:33:59;;;;;;;4.00;3.40;;;;;;;;;;4563910;28;20032;-72
2022/06/28 02:41:08;;;;;;;3.53;3.10;;;;;;;;;;4572783;28;20036;-72
2022/06/28 02:43:19;;;;;;;3.97;3.53;;;;;;;;;;4566033;27;20040;-72
2022/06/28 02:45:31;;;;;;;4.22;3.40;;;;;;;;;;4567972;28;20171;-72
2022/06/28 02:47:41;;;;;;;4.35;3.10;;;;;;;;;;4573212;28;20562;-72
2022/06/28 02:49:52;;;;;;;4.68;3.28;;;;;;;;;;4573573;28;20032;-72
2022/06/28 02:52:03;;;;;;;4.38;3.30;;;;;;;;;;4565225;28;20497;-71
2022/06/28 02:54:13;;;;;;;3.22;2.92;;;;;;;;;;4563231;28;20039;-72
2022/06/28 02:56:24;;;;;;;3.60;2.88;;;;;;;;;;4550989;28;20643;-72
2022/06/28 02:58:34;;;;;;;3.75;3.13;;;;;;;;;;4567859;28;20094;-72
2022/06/28 03:00:45;;;;;;;3.05;2.70;;;;;;;;;;4567160;28;20092;-72
2022/06/28 03:02:55;;;;;;;3.35;2.95;;;;;;;;;;4565942;28;20024;-72
2022/06/28 03:05:12;;;;;;;3.95;3.15;;;;;;;;;;4565278;27;20405;-72
2022/06/28 03:07:22;;;;;;;2.97;2.60;;;;;;;;;;4563506;28;20055;-72
2022/06/28 03:09:33;;;;;;;3.22;2.90;;;;;;;;;;4572396;28;20046;-73
2022/06/28 03:11:44;;;;;;;3.35;2.92;;;;;;;;;;4574438;27;20058;-72
2022/06/28 03:13:54;;;;;;;3.70;2.80;;;;;;;;;;4566957;28;20038;-71
2022/06/28 03:16:05;;;;;;;3.42;2.72;;;;;;;;;;4564376;27;20039;-71
2022/06/28 03:18:16;;;;;;;3.47;3.10;;;;;;;;;;4567603;28;20067;-71
2022/06/28 03:20:28;;;;;;;3.90;2.92;;;;;;;;;;4562087;28;20523;-71
2022/06/28 03:22:38;;;;;;;4.00;3.35;;;;;;;;;;4566580;28;20054;-72
2022/06/28 03:24:49;;;;;;;3.55;3.10;;;;;;;;;;4566032;28;20653;-71
2022/06/28 03:26:59;;;;;;;3.97;3.03;;;;;;;;;;4566676;28;20021;-71
2022/06/28 03:29:10;;;;;;;4.10;3.10;;;;;;;;;;4566184;28;20143;-72
2022/06/28 03:31:21;;;;;;;3.40;2.95;;;;;;;;;;4567039;28;20032;-72
2022/06/28 03:33:31;;;;;;;4.30;3.03;;;;;;;;;;4531230;28;20447;-72
2022/06/28 03:35:42;;;;;;;4.10;3.30;;;;;;;;;;4562793;28;20032;-70
2022/06/28 03:37:52;;;;;;;4.88;3.17;;;;;;;;;;4563134;27;20093;-71
2022/06/28 03:40:05;;;;;;;3.88;3.00;;;;;;;;;;4572230;28;20036;-72
2022/06/28 03:42:18;;;;;;;4.15;2.90;;;;;;;;;;4567088;28;20123;-71
2022/06/28 03:44:30;;;;;;;3.60;3.08;;;;;;;;;;4565449;28;20032;-71
2022/06/28 03:46:43;;;;;;;5.05;2.97;;;;;;;;;;4564135;27;20059;-71
2022/06/28 03:49:26;;;;;;;4.53;3.30;;;;;;;;;;4548460;28;20063;-71
2022/06/28 03:51:43;;;;;;;4.30;3.25;;;;;;;;;;4562862;28;21194;-72
2022/06/28 03:54:19;;;;;;;5.15;3.22;;;;;;;;;;4561784;28;20047;-71
2022/06/28 03:56:37;;;;;;;4.60;2.83;;;;;;;;;;4556716;28;20032;-71
2022/06/28 03:58:48;;;;;;;3.28;2.83;;;;;;;;;;4564218;28;20439;-71
2022/06/28 04:00:58;;;;;;;3.47;3.03;;;;;;;;;;4565658;28;20424;-72
2022/06/28 04:03:09;;;;;;;4.45;2.85;;;;;;;;;;4562169;28;20577;-72
2022/06/28 04:05:26;;;;;;;4.10;3.10;;;;;;;;;;4572357;28;20646;-71
2022/06/28 04:07:37;;;;;;;4.43;3.20;;;;;;;;;;4578240;27;20600;-69
2022/06/28 04:09:47;;;;;;;3.25;2.72;;;;;;;;;;4564327;28;20066;-71
2022/06/28 04:11:58;;;;;;;3.08;2.72;;;;;;;;;;4561721;28;20048;-71
2022/06/28 04:14:13;;;;;;;4.07;3.05;;;;;;;;;;4564520;28;20051;-72
2022/06/28 04:16:24;;;;;;;3.60;2.90;;;;;;;;;;4562543;28;20128;-70
2022/06/28 04:18:40;;;;;;;3.80;3.10;;;;;;;;;;4545106;28;20576;-70
2022/06/28 04:20:53;;;;;;;4.50;3.17;;;;;;;;;;4562365;28;20048;-70
2022/06/28 04:23:04;;;;;;;3.97;3.13;;;;;;;;;;4548876;28;20580;-69
2022/06/28 04:25:16;;;;;;;4.93;3.17;;;;;;;;;;4572557;28;20036;-69
2022/06/28 04:27:31;;;;;;;3.53;3.10;;;;;;;;;;4564316;28;21094;-70
2022/06/28 04:29:42;;;;;;;3.72;2.85;;;;;;;;;;4563029;28;20037;-70
2022/06/28 04:32:05;;;;;;;4.07;3.20;;;;;;;;;;4560680;28;20041;-69
2022/06/28 04:34:16;;;;;;;4.40;3.47;;;;;;;;;;4562435;28;20033;-70
2022/06/28 04:36:30;;;;;;;3.75;2.85;;;;;;;;;;4572181;28;20591;-70
2022/06/28 04:38:41;;;;;;;4.90;2.85;;;;;;;;;;4571294;28;20028;-70
2022/06/28 04:40:54;;;;;;;3.10;2.40;;;;;;;;;;4550020;28;20127;-70
2022/06/28 04:43:19;;;;;;;4.43;2.42;;;;;;;;;;4564509;28;20028;-70
2022/06/28 04:45:29;;;;;;;4.50;2.70;;;;;;;;;;4553519;28;20021;-69
2022/06/28 04:47:49;;;;;;;3.90;2.70;;;;;;;;;;4571898;28;20161;-70
2022/06/28 04:50:00;;;;;;;4.93;2.50;;;;;;;;;;4565700;28;20247;-70
2022/06/28 04:52:11;;;;;;;4.03;2.65;;;;;;;;;;4565806;28;20036;-71
2022/06/28 04:54:27;;;;;;;3.30;2.70;;;;;;;;;;4566622;27;20060;-70
2022/06/28 04:57:00;;;;;;;4.15;2.50;;;;;;;;;;4562409;28;20047;-70
2022/06/28 04:59:11;;;;;;;3.42;2.42;;;;;;;;;;4563196;28;20028;-70
2022/06/28 05:01:22;;;;;;;2.50;2.20;;;;;;;;;;4563698;28;20058;-70
2022/06/28 05:03:33;;;;;;;3.35;2.40;;;;;;;;;;4562556;28;20036;-70
2022/06/28 05:05:47;;;;;;;3.95;2.38;;;;;;;;;;4561450;27;20082;-70
2022/06/28 05:07:58;;;;;;;3.17;2.20;;;;;;;;;;4578054;27;20909;-70
2022/06/28 05:10:14;;;;;;;3.40;2.60;;;;;;;;;;4579854;27;20097;-70
2022/06/28 05:12:32;;;;;;;4.18;1.98;;;;;;;;;;4565080;28;20089;-70
2022/06/28 05:14:43;;;;;;;3.30;2.20;;;;;;;;;;4562363;28;20591;-70
2022/06/28 05:16:56;;;;;;;3.75;2.30;;;;;;;;;;4576991;27;20035;-70
2022/06/28 05:19:07;;;;;;;2.60;1.95;;;;;;;;;;4564014;27;20032;-70
2022/06/28 05:21:21;;;;;;;3.25;2.40;;;;;;;;;;4570736;28;20621;-70
2022/06/28 05:23:32;;;;;;;3.05;2.30;;;;;;;;;;4577343;27;20391;-70
2022/06/28 05:26:01;;;;;;;4.07;2.20;;;;;;;;;;4561929;28;20085;-69
2022/06/28 05:28:12;;;;;;;3.22;2.50;;;;;;;;;;4564566;28;20894;-69
2022/06/28 05:30:22;;;;;;;4.25;2.88;;;;;;;;;;4568183;27;20064;-69
2022/06/28 05:32:32;;;;;;;4.55;2.50;;;;;;;;;;4570160;28;20044;-70
2022/06/28 05:34:43;;;;;;;4.63;2.45;;;;;;;;;;4569961;28;20034;-70
2022/06/28 05:36:53;;;;;;;3.03;2.28;;;;;;;;;;4565901;28;20040;-69
2022/06/28 05:39:05;;;;;;;3.53;2.50;;;;;;;;;;4564718;28;20028;-69
2022/06/28 05:41:15;;;;;;;4.85;2.17;;;;;;;;;;4565760;28;21202;-70
2022/06/28 05:43:26;;;;;;;3.63;2.20;;;;;;;;;;4564759;28;20043;-69
2022/06/28 05:45:37;;;;;;;3.13;2.30;;;;;;;;;;4565576;28;20874;-69
2022/06/28 05:47:47;;;;;;;2.75;2.28;;;;;;;;;;4572571;28;20048;-69
2022/06/28 05:49:58;;;;;;;2.80;2.15;;;;;;;;;;4563534;27;20036;-69
2022/06/28 05:52:08;;;;;;;3.40;2.10;;;;;;;;;;4549965;28;20028;-70
2022/06/28 05:54:19;;;;;;;2.83;2.10;;;;;;;;;;4565654;27;20933;-70
2022/06/28 05:56:30;;;;;;;3.08;2.20;;;;;;;;;;4564541;28;20052;-69
2022/06/28 05:58:41;;;;;;;2.35;1.75;;;;;;;;;;4566953;27;21002;-70
2022/06/28 06:00:51;;;;;;;3.13;2.10;;;;;;;;;;4553955;28;20036;-70
2022/06/28 06:03:02;;;;;;;2.50;1.75;;;;;;;;;;4566440;27;20028;-69
2022/06/28 06:05:12;;;;;;;3.88;1.95;;;;;;;;;;4548841;28;20111;-70
2022/06/28 06:07:23;;;;;;;2.20;2.00;;;;;;;;;;4547907;28;20033;-71
2022/06/28 06:09:34;;;;;;;2.55;2.05;;;;;;;;;;4572643;28;20020;-70
2022/06/28 06:11:47;;;;;;;3.20;1.90;;;;;;;;;;4569141;28;20040;-70
2022/06/28 06:13:58;;;;;;;3.47;2.10;;;;;;;;;;4546486;28;20454;-70
2022/06/28 06:16:08;;;;;;;2.20;1.70;;;;;;;;;;4555535;28;20032;-69
2022/06/28 06:18:19;;;;;;;3.15;1.80;;;;;;;;;;4565764;28;20155;-70
2022/06/28 06:20:29;;;;;;;4.30;1.73;;;;;;;;;;4575196;28;20051;-70
2022/06/28 06:22:40;;;;;;;3.15;1.80;;;;;;;;;;4574904;28;20016;-70
2022/06/28 06:25:06;;;;;;;3.97;1.75;;;;;;;;;;4571213;28;20097;-70
2022/06/28 06:27:22;;;;;;;2.38;1.90;;;;;;;;;;4566952;28;20075;-70
2022/06/28 06:29:32;;;;;;;2.38;1.60;;;;;;;;;;4566858;28;20107;-69
2022/06/28 06:31:43;;;;;;;2.22;1.40;;;;;;;;;;4558787;28;20215;-69
2022/06/28 06:34:23;;;;;;;2.38;1.88;;;;;;;;;;4558652;28;20673;-69
2022/06/28 06:36:37;;;;;;;2.85;1.77;;;;;;;;;;4553244;28;20124;-68
2022/06/28 06:38:49;;;;;;;2.53;1.48;;;;;;;;;;4567801;28;20039;-68
2022/06/28 06:41:00;;;;;;;2.63;1.52;;;;;;;;;;4566439;28;20507;-68
2022/06/28 06:43:10;;;;;;;2.65;1.50;;;;;;;;;;4557265;28;20036;-68
2022/06/28 06:45:22;;;;;;;1.80;1.50;;;;;;;;;;4569474;28;20526;-67
2022/06/28 06:47:32;;;;;;;1.92;1.60;;;;;;;;;;4564567;28;20029;-68
2022/06/28 06:49:43;;;;;;;2.13;1.52;;;;;;;;;;4573656;28;20041;-67
2022/06/28 06:51:53;;;;;;;2.25;1.80;;;;;;;;;;4565154;28;20064;-69
2022/06/28 06:54:04;;;;;;;1.70;1.40;;;;;;;;;;4552388;28;20828;-68
2022/06/28 06:56:14;;;;;;;2.05;1.40;;;;;;;;;;4566686;27;20039;-67
2022/06/28 06:58:25;;;;;;;1.65;1.40;;;;;;;;;;4568657;28;20062;-68
2022/06/28 07:00:35;;;;;;;1.60;1.20;;;;;;;;;;4581977;27;20510;-68
2022/06/28 07:02:47;;;;;;;1.55;0.90;;;;;;;;;;4574332;28;20020;-68
2022/06/28 07:04:57;;;;;;;1.20;1.00;;;;;;;;;;4567069;28;20033;-68
2022/06/28 07:07:08;;;;;;;1.70;1.25;;;;;;;;;;4568712;28;20033;-68
2022/06/28 07:09:18;;;;;;;1.48;1.05;;;;;;;;;;4565159;28;20562;-68
2022/06/28 07:11:31;;;;;;;1.77;1.13;;;;;;;;;;4564328;28;20032;-68
2022/06/28 07:13:41;;;;;;;1.65;1.27;;;;;;;;;;4556545;28;20029;-68
2022/06/28 07:15:53;;;;;;;1.55;1.10;;;;;;;;;;4566944;28;20035;-68
2022/06/28 07:18:06;;;;;;;1.60;0.95;;;;;;;;;;4567296;28;20025;-68
2022/06/28 07:20:17;;;;;;;2.17;1.00;;;;;;;;;;4568777;28;20386;-68
2022/06/28 07:22:27;;;;;;;2.47;1.23;;;;;;;;;;4573548;28;20036;-67
2022/06/28 07:24:41;;;;;;;1.60;1.10;;;;;;;;;;4574552;28;20032;-68
2022/06/28 07:26:53;;;;;;;1.75;1.00;;;;;;;;;;4566519;28;20032;-68
2022/06/28 07:29:04;;;;;;;2.17;1.13;;;;;;;;;;4568949;28;20036;-68
2022/06/28 07:31:15;;;;;;;2.25;1.20;;;;;;;;;;4574300;28;20078;-68
2022/06/28 07:33:25;;;;;;;1.92;1.27;;;;;;;;;;4566866;28;20539;-67
2022/06/28 07:35:36;;;;;;;2.17;1.40;;;;;;;;;;4563327;28;20029;-67
2022/06/28 07:37:47;;;;;;;2.60;1.30;;;;;;;;;;4567889;28;20485;-68
2022/06/28 07:39:59;;;;;;;1.77;1.20;;;;;;;;;;4548875;28;20082;-68
2022/06/28 07:42:27;;;;;;;1.73;1.30;;;;;;;;;;4561137;28;20791;-68
2022/06/28 07:45:04;;;;;;;1.80;1.40;;;;;;;;;;4552226;27;20171;-68
2022/06/28 07:47:16;;;;;;;2.35;1.20;;;;;;;;;;4573373;28;21072;-69
2022/06/28 07:52:33;;;;;;;1.73;1.15;;;;;;;;;;4550371;28;20464;-68
2022/06/28 07:54:28;;;;;;;1.67;1.00;;;;;;;;;;4572694;28;20110;-68
2022/06/28 07:56:51;;;;;;;1.08;0.90;;;;;;;;;;4555111;28;20123;-68
2022/06/28 07:59:02;;;;;;;1.13;1.02;;;;;;;;;;4567485;28;20028;-68
2022/06/28 08:01:16;;;;;;;2.13;1.05;;;;;;;;;;4566904;28;20040;-68
2022/06/28 08:03:27;;;;;;;1.48;1.20;;;;;;;;;;4562660;28;21095;-68
2022/06/28 08:05:38;;;;;;;1.27;1.17;;;;;;;;;;4567072;28;20043;-67
2022/06/28 08:07:48;;;;;;;1.38;1.10;;;;;;;;;;4568264;28;20472;-68
2022/06/28 08:09:59;;;;;;;1.50;1.10;;;;;;;;;;4568058;28;20494;-68
2022/06/28 08:12:09;;;;;;;1.60;1.10;;;;;;;;;;4572540;28;20776;-68
2022/06/28 08:14:20;;;;;;;2.08;1.13;;;;;;;;;;4573043;28;20036;-69
2022/06/28 08:16:31;;;;;;;2.03;1.17;;;;;;;;;;4564648;28;20033;-68
2022/06/28 08:18:42;;;;;;;1.88;1.27;;;;;;;;;;4563671;28;20496;-68
2022/06/28 08:20:54;;;;;;;1.58;1.23;;;;;;;;;;4573104;28;20032;-68
2022/06/28 08:23:04;;;;;;;2.45;1.50;;;;;;;;;;4564785;28;20025;-68
2022/06/28 08:25:15;;;;;;;1.20;1.10;;;;;;;;;;4563604;28;20059;-68
2022/06/28 08:27:26;;;;;;;1.67;1.02;;;;;;;;;;4550342;28;20603;-69
2022/06/28 08:29:37;;;;;;;1.95;1.17;;;;;;;;;;4550053;28;20491;-68
2022/06/28 08:31:47;;;;;;;2.40;1.40;;;;;;;;;;4571823;28;20024;-69
2022/06/28 08:33:57;;;;;;;1.77;1.20;;;;;;;;;;4572710;28;20044;-68
2022/06/28 08:36:08;;;;;;;1.65;1.30;;;;;;;;;;4562777;27;20040;-68
2022/06/28 08:38:18;;;;;;;1.80;1.40;;;;;;;;;;4565205;28;20761;-68
2022/06/28 08:40:29;;;;;;;2.42;1.20;;;;;;;;;;4563284;27;20042;-68
2022/06/28 08:42:45;;;;;;;1.92;1.35;;;;;;;;;;4562305;28;20063;-68
2022/06/28 08:44:59;;;;;;;2.23;1.60;;;;;;;;;;4579696;27;20779;-68
2022/06/28 08:47:13;;;;;;;1.40;1.10;;;;;;;;;;4565018;28;20036;-68
2022/06/28 08:49:51;;;;;;;1.55;1.20;;;;;;;;;;4563645;28;20032;-69
2022/06/28 08:52:03;;;;;;;1.33;1.15;;;;;;;;;;4563826;28;20228;-69
2022/06/28 08:54:14;;;;;;;2.28;1.52;;;;;;;;;;4562138;27;20070;-69
2022/06/28 08:56:25;;;;;;;1.63;1.20;;;;;;;;;;4546736;28;20040;-68
2022/06/28 08:58:36;;;;;;;1.42;1.20;;;;;;;;;;4562722;28;20032;-68
2022/06/28 09:00:47;;;;;;;1.33;1.10;;;;;;;;;;4565651;28;20032;-68
2022/06/28 09:02:58;;;;;;;1.00;0.90;;;;;;;;;;4562430;28;20044;-67
2022/06/28 09:05:09;;;;;;;1.27;1.00;;;;;;;;;;4563425;28;20155;-68
2022/06/28 09:07:21;;;;;;;1.02;0.80;;;;;;;;;;4564376;28;20551;-67
2022/06/28 09:09:31;;;;;;;0.95;0.80;;;;;;;;;;4564516;28;20020;-68
2022/06/28 09:11:44;;;;;;;1.60;1.00;;;;;;;;;;4563795;27;20029;-68
2022/06/28 09:13:54;;;;;;;1.25;0.75;;;;;;;;;;4560473;28;20086;-69
2022/06/28 09:16:05;;;;;;;1.58;0.90;;;;;;;;;;4556276;28;20491;-68
2022/06/28 09:18:16;;;;;;;1.67;0.77;;;;;;;;;;4564139;28;20119;-70
2022/06/28 09:20:38;;;;;;;0.70;0.70;;;;;;;;;;4565910;28;20995;-69
2022/06/28 09:22:49;;;;;;;0.80;0.80;;;;;;;;;;4559803;28;20174;-68
2022/06/28 09:25:02;;;;;;;0.88;0.80;;;;;;;;;;4571421;28;20158;-68
2022/06/28 09:27:12;;;;;;;1.00;0.90;;;;;;;;;;4562005;28;20089;-68
2022/06/28 09:29:23;;;;;;;1.88;0.90;;;;;;;;;;4562467;28;20026;-69
2022/06/28 09:31:33;;;;;;;1.23;0.75;;;;;;;;;;4564004;28;20093;-68
2022/06/28 09:34:03;;;;;;;0.93;0.70;;;;;;;;;;4566338;28;20138;-68
2022/06/28 09:36:15;;;;;;;0.70;0.60;;;;;;;;;;4563682;28;20036;-69
2022/06/28 09:38:32;;;;;;;0.70;0.70;;;;;;;;;;4562261;28;20024;-68
2022/06/28 09:40:43;;;;;;;0.80;0.77;;;;;;;;;;4562335;28;20576;-68
2022/06/28 09:43:17;;;;;;;0.70;0.70;;;;;;;;;;4563212;27;20047;-69
2022/06/28 09:45:28;;;;;;;0.70;0.70;;;;;;;;;;4565151;27;20616;-69
2022/06/28 09:47:47;;;;;;;1.30;0.93;;;;;;;;;;4568891;28;20115;-69
2022/06/28 09:49:59;;;;;;;1.55;0.93;;;;;;;;;;4571092;27;20036;-68
2022/06/28 09:52:10;;;;;;;0.70;0.70;;;;;;;;;;4565991;28;20046;-69
2022/06/28 09:54:23;;;;;;;0.95;0.80;;;;;;;;;;4566838;28;20032;-68
2022/06/28 09:56:38;;;;;;;1.00;0.90;;;;;;;;;;4568420;28;20617;-69
2022/06/28 09:58:49;;;;;;;1.13;0.93;;;;;;;;;;4566406;28;20041;-68
2022/06/28 10:00:59;;;;;;;0.77;0.70;;;;;;;;;;4565887;28;20075;-68
2022/06/28 10:03:10;;;;;;;1.30;0.82;;;;;;;;;;4565181;28;20041;-68
2022/06/28 10:05:20;;;;;;;0.85;0.60;;;;;;;;;;4565121;28;20041;-68
2022/06/28 10:07:31;;;;;;;0.88;0.70;;;;;;;;;;4566325;28;20054;-68
2022/06/28 10:09:42;;;;;;;1.35;0.70;;;;;;;;;;4567786;28;20040;-68
2022/06/28 10:17:04;;;;;;;0.73;0.70;;;;;;;;;;4564000;28;20102;-68
2022/06/28 10:19:19;;;;;;;1.02;0.70;;;;;;;;;;4575484;27;20325;-69
2022/06/28 10:21:52;;;;;;;0.93;0.63;;;;;;;;;;4568321;28;20032;-69
2022/06/28 10:24:04;;;;;;;0.65;0.65;;;;;;;;;;4561216;28;20875;-69
2022/06/28 10:26:14;;;;;;;0.95;0.80;;;;;;;;;;4565239;28;20728;-68
2022/06/28 10:28:26;;;;;;;0.70;0.60;;;;;;;;;;4566702;28;20109;-68
2022/06/28 10:30:37;;;;;;;1.02;0.70;;;;;;;;;;4565533;28;20477;-68
2022/06/28 10:32:52;;;;;;;0.82;0.60;;;;;;;;;;4566175;28;20044;-69
2022/06/28 10:35:03;;;;;;;0.65;0.65;;;;;;;;;;4567706;28;20089;-69
2022/06/28 10:37:14;;;;;;;1.50;0.80;;;;;;;;;;4565215;27;20435;-68
2022/06/28 10:39:31;;;;;;;0.70;0.70;;;;;;;;;;4564129;28;20040;-68
2022/06/28 10:41:46;;;;;;;1.15;0.60;;;;;;;;;;4568185;28;20101;-68
2022/06/28 10:44:28;;;;;;;0.80;0.60;;;;;;;;;;4566503;27;20496;-68
2022/06/28 10:46:42;;;;;;;1.08;0.50;;;;;;;;;;4556890;27;20048;-68
2022/06/28 10:48:52;;;;;;;0.68;0.65;;;;;;;;;;4551924;28;20615;-68
2022/06/28 10:51:03;;;;;;;0.88;0.70;;;;;;;;;;4566373;27;20043;-68
2022/06/28 10:53:14;;;;;;;0.65;0.60;;;;;;;;;;4563923;28;20032;-68
2022/06/28 10:55:24;;;;;;;0.80;0.63;;;;;;;;;;4566146;27;20072;-69
2022/06/28 10:57:36;;;;;;;0.63;0.60;;;;;;;;;;4564945;27;20040;-68
2022/06/28 10:59:49;;;;;;;1.23;0.60;;;;;;;;;;4565474;28;20028;-69
2022/06/28 11:02:00;;;;;;;0.93;0.77;;;;;;;;;;4565353;28;20523;-68
2022/06/28 11:04:29;;;;;;;0.90;0.70;;;;;;;;;;4564412;28;20737;-69
2022/06/28 11:06:44;;;;;;;0.60;0.60;;;;;;;;;;4565462;28;20100;-69
2022/06/28 11:09:01;;;;;;;0.60;0.55;;;;;;;;;;4565362;28;20029;-69
2022/06/28 11:11:12;;;;;;;0.50;0.50;;;;;;;;;;4565142;28;20580;-69
2022/06/28 11:13:23;;;;;;;1.08;0.60;;;;;;;;;;4565780;28;20044;-68
2022/06/28 11:15:37;;;;;;;1.15;0.70;;;;;;;;;;4574340;28;20036;-68
2022/06/28 11:17:47;;;;;;;0.70;0.70;;;;;;;;;;4567256;28;20571;-69
2022/06/28 11:20:05;;;;;;;0.93;0.70;;;;;;;;;;4565951;28;20028;-68
2022/06/28 11:22:19;;;;;;;0.73;0.70;;;;;;;;;;4565231;28;20135;-69
2022/06/28 11:24:30;;;;;;;1.33;0.73;;;;;;;;;;4565356;27;20035;-68
2022/06/28 11:29:10;;;;;;;0.95;0.75;;;;;;;;;;4564105;28;20078;-69
2022/06/28 11:31:21;;;;;;;1.17;0.60;;;;;;;;;;4570686;27;20039;-69
2022/06/28 11:33:32;;;;;;;1.13;0.60;;;;;;;;;;4565729;28;20660;-69
2022/06/28 11:35:42;;;;;;;0.90;0.65;;;;;;;;;;4564558;28;20129;-68
2022/06/28 11:38:05;;;;;;;0.60;0.60;;;;;;;;;;4566899;28;20841;-68
2022/06/28 11:40:17;;;;;;;0.68;0.63;;;;;;;;;;4564849;28;20068;-68
2022/06/28 11:42:28;;;;;;;1.85;0.60;;;;;;;;;;4566884;28;20028;-69
2022/06/28 11:44:39;;;;;;;0.52;0.52;;;;;;;;;;4572958;28;20079;-69
2022/06/28 11:46:51;;;;;;;0.77;0.52;;;;;;;;;;4565249;28;20073;-69
2022/06/28 11:49:01;;;;;;;0.77;0.60;;;;;;;;;;4565547;28;20666;-69
2022/06/28 11:51:25;;;;;;;0.60;0.60;;;;;;;;;;4564338;28;20093;-69
2022/06/28 11:53:44;;;;;;;0.82;0.68;;;;;;;;;;4563485;28;20113;-69
2022/06/28 11:55:56;;;;;;;1.77;0.60;;;;;;;;;;4563325;28;20543;-68
2022/06/28 11:58:19;;;;;;;0.73;0.52;;;;;;;;;;4567911;28;20028;-68
2022/06/28 12:00:29;;;;;;;0.70;0.60;;;;;;;;;;4565076;28;20799;-70
2022/06/28 12:02:49;;;;;;;0.70;0.70;;;;;;;;;;4565119;28;20040;-69
2022/06/28 12:05:00;;;;;;;0.73;0.50;;;;;;;;;;4565579;28;20068;-69
2022/06/28 12:07:10;;;;;;;0.55;0.55;;;;;;;;;;4564364;28;20037;-68
2022/06/28 12:09:21;;;;;;;0.50;0.50;;;;;;;;;;4563501;28;20048;-69
2022/06/28 12:11:32;;;;;;;0.95;0.52;;;;;;;;;;4565062;27;20134;-69
2022/06/28 12:13:43;;;;;;;0.60;0.50;;;;;;;;;;4565866;28;20139;-68
2022/06/28 12:15:53;;;;;;;1.25;0.60;;;;;;;;;;4566032;28;20040;-68
2022/06/28 12:18:06;;;;;;;0.82;0.70;;;;;;;;;;4565146;28;20580;-69
2022/06/28 12:20:17;;;;;;;0.88;0.60;;;;;;;;;;4563676;27;20032;-69
2022/06/28 12:22:27;;;;;;;0.75;0.50;;;;;;;;;;4563553;28;20036;-68
2022/06/28 12:24:43;;;;;;;0.50;0.50;;;;;;;;;;4571916;28;20096;-68
2022/06/28 12:26:54;;;;;;;0.95;0.60;;;;;;;;;;4565484;28;20152;-69
2022/06/28 12:29:04;;;;;;;0.68;0.50;;;;;;;;;;4564542;28;20675;-68
2022/06/28 12:31:15;;;;;;;0.70;0.60;;;;;;;;;;4564069;28;20040;-70
2022/06/28 12:33:25;;;;;;;0.90;0.50;;;;;;;;;;4562265;28;20091;-68
2022/06/28 12:35:36;;;;;;;0.50;0.47;;;;;;;;;;4564276;28;20056;-69
2022/06/28 12:37:47;;;;;;;1.10;0.52;;;;;;;;;;4563152;27;20246;-68
2022/06/28 12:39:58;;;;;;;0.60;0.60;;;;;;;;;;4563745;28;20039;-68
2022/06/28 12:42:08;;;;;;;0.63;0.50;;;;;;;;;;4564089;28;21391;-68
2022/06/28 12:44:19;;;;;;;1.55;0.55;;;;;;;;;;4566469;28;20038;-68
2022/06/28 12:46:29;;;;;;;0.80;0.55;;;;;;;;;;4566287;28;20028;-68
2022/06/28 12:48:40;;;;;;;0.57;0.47;;;;;;;;;;4564289;28;20040;-69
2022/06/28 12:50:50;;;;;;;0.60;0.50;;;;;;;;;;4562934;28;20043;-68
2022/06/28 12:53:01;;;;;;;0.70;0.50;;;;;;;;;;4563155;27;20048;-69
2022/06/28 12:55:12;;;;;;;1.02;0.50;;;;;;;;;;4563050;28;20021;-68
2022/06/28 12:57:23;;;;;;;0.40;0.40;;;;;;;;;;4564265;28;20040;-69
2022/06/28 12:59:33;;;;;;;0.73;0.60;;;;;;;;;;4565621;27;20037;-69
2022/06/28 13:01:44;;;;;;;1.00;0.60;;;;;;;;;;4551909;28;20025;-69
2022/06/28 13:03:54;;;;;;;0.93;0.70;;;;;;;;;;4564001;28;20169;-69
2022/06/28 13:06:06;;;;;;;1.20;0.50;;;;;;;;;;4565674;28;20546;-69
2022/06/28 13:08:17;;;;;;;1.35;0.50;;;;;;;;;;4564360;28;20020;-69
2022/06/28 13:10:27;;;;;;;0.40;0.40;;;;;;;;;;4562385;28;20040;-68
2022/06/28 13:12:38;;;;;;;0.70;0.50;;;;;;;;;;4563729;27;20040;-69
2022/06/28 13:14:49;;;;;;;1.48;0.82;;;;;;;;;;4564105;27;20028;-70
2022/06/28 13:16:59;;;;;;;0.43;0.43;;;;;;;;;;4563976;28;20830;-69
2022/06/28 13:19:09;;;;;;;0.35;0.30;;;;;;;;;;4564924;28;20032;-69
2022/06/28 13:21:20;;;;;;;0.57;0.50;;;;;;;;;;4563606;28;20040;-68
2022/06/28 13:23:31;;;;;;;0.70;0.70;;;;;;;;;;4567754;28;20115;-69
2022/06/28 13:25:41;;;;;;;1.15;0.55;;;;;;;;;;4563630;28;20036;-70
2022/06/28 13:27:52;;;;;;;0.80;0.50;;;;;;;;;;4563556;28;20028;-69
2022/06/28 13:30:04;;;;;;;0.80;0.40;;;;;;;;;;4572343;28;20166;-69
2022/06/28 13:32:14;;;;;;;0.43;0.43;;;;;;;;;;4566064;27;20563;-69
2022/06/28 13:34:25;;;;;;;0.70;0.50;;;;;;;;;;4563520;28;20079;-69